sensor_id;sensor_type;location;lat;lon;timestamp;P1;durP1;ratioP1;P2;durP2;ratioP2
22024;SDS011;11176;51.448;6.650;2023-06-26T00:01:28;10.23;;;5.85;;
22024;SDS011;11176;51.448;6.650;2023-06-26T00:03:58;8.65;;;6.35;;
22024;SDS011;11176;51.448;6.650;2023-06-26T00:06:26;7.35;;;6.00;;
22024;SDS011;11176;51.448;6.650;2023-06-26T00:08:53;8.85;;;6.40;;
22024;SDS011;11176;51.448;6.650;2023-06-26T00:11:20;7.95;;;5.80;;
22024;SDS011;11176;51.448;6.650;2023-06-26T00:13:48;8.55;;;5.70;;
22024;SDS011;11176;51.448;6.650;2023-06-26T00:16:15;7.85;;;6.28;;
22024;SDS011;11176;51.448;6.650;2023-06-26T00:18:41;8.38;;;5.70;;
22024;SDS011;11176;51.448;6.650;2023-06-26T00:21:08;9.20;;;6.00;;
22024;SDS011;11176;51.448;6.650;2023-06-26T00:23:34;8.50;;;5.93;;
22024;SDS011;11176;51.448;6.650;2023-06-26T00:26:05;7.63;;;6.05;;
22024;SDS011;11176;51.448;6.650;2023-06-26T00:28:32;8.00;;;6.30;;
22024;SDS011;11176;51.448;6.650;2023-06-26T00:30:59;9.30;;;6.28;;
22024;SDS011;11176;51.448;6.650;2023-06-26T00:33:28;9.30;;;6.80;;
22024;SDS011;11176;51.448;6.650;2023-06-26T00:35:56;7.63;;;6.30;;
22024;SDS011;11176;51.448;6.650;2023-06-26T00:38:23;7.95;;;6.30;;
22024;SDS011;11176;51.448;6.650;2023-06-26T00:40:49;8.80;;;6.03;;
22024;SDS011;11176;51.448;6.650;2023-06-26T00:43:16;8.68;;;6.32;;
22024;SDS011;11176;51.448;6.650;2023-06-26T00:45:43;7.97;;;6.57;;
22024;SDS011;11176;51.448;6.650;2023-06-26T00:48:10;8.85;;;5.93;;
22024;SDS011;11176;51.448;6.650;2023-06-26T00:50:38;8.10;;;5.95;;
22024;SDS011;11176;51.448;6.650;2023-06-26T00:53:06;9.80;;;6.60;;
22024;SDS011;11176;51.448;6.650;2023-06-26T00:55:32;7.38;;;6.13;;
22024;SDS011;11176;51.448;6.650;2023-06-26T00:57:59;7.05;;;5.50;;
22024;SDS011;11176;51.448;6.650;2023-06-26T01:00:27;8.93;;;6.32;;
22024;SDS011;11176;51.448;6.650;2023-06-26T01:02:54;7.65;;;6.20;;
22024;SDS011;11176;51.448;6.650;2023-06-26T01:05:26;8.48;;;6.55;;
22024;SDS011;11176;51.448;6.650;2023-06-26T01:07:54;8.15;;;6.18;;
22024;SDS011;11176;51.448;6.650;2023-06-26T01:10:23;8.07;;;6.43;;
22024;SDS011;11176;51.448;6.650;2023-06-26T01:12:52;7.35;;;6.25;;
22024;SDS011;11176;51.448;6.650;2023-06-26T01:15:18;9.55;;;6.68;;
22024;SDS011;11176;51.448;6.650;2023-06-26T01:17:45;8.30;;;5.95;;
22024;SDS011;11176;51.448;6.650;2023-06-26T01:20:13;8.07;;;5.97;;
22024;SDS011;11176;51.448;6.650;2023-06-26T01:22:56;8.85;;;6.70;;
22024;SDS011;11176;51.448;6.650;2023-06-26T01:28:30;9.52;;;6.03;;
22024;SDS011;11176;51.448;6.650;2023-06-26T01:30:58;8.38;;;5.90;;
22024;SDS011;11176;51.448;6.650;2023-06-26T01:33:25;8.55;;;6.00;;
22024;SDS011;11176;51.448;6.650;2023-06-26T01:35:53;7.45;;;5.95;;
22024;SDS011;11176;51.448;6.650;2023-06-26T01:38:20;8.43;;;6.00;;
22024;SDS011;11176;51.448;6.650;2023-06-26T01:40:49;8.07;;;6.22;;
22024;SDS011;11176;51.448;6.650;2023-06-26T01:51:30;8.52;;;6.68;;
22024;SDS011;11176;51.448;6.650;2023-06-26T01:54:01;9.27;;;6.82;;
22024;SDS011;11176;51.448;6.650;2023-06-26T01:56:29;7.35;;;5.90;;
22024;SDS011;11176;51.448;6.650;2023-06-26T01:58:57;8.02;;;6.53;;
22024;SDS011;11176;51.448;6.650;2023-06-26T02:01:23;12.13;;;7.50;;
22024;SDS011;11176;51.448;6.650;2023-06-26T02:03:50;8.52;;;6.35;;
22024;SDS011;11176;51.448;6.650;2023-06-26T02:06:18;9.15;;;6.72;;
22024;SDS011;11176;51.448;6.650;2023-06-26T02:08:45;11.00;;;6.75;;
22024;SDS011;11176;51.448;6.650;2023-06-26T02:11:11;11.80;;;6.78;;
22024;SDS011;11176;51.448;6.650;2023-06-26T02:13:39;9.75;;;7.00;;
22024;SDS011;11176;51.448;6.650;2023-06-26T02:16:06;10.07;;;7.43;;
22024;SDS011;11176;51.448;6.650;2023-06-26T02:18:33;10.13;;;7.82;;
22024;SDS011;11176;51.448;6.650;2023-06-26T02:20:59;9.93;;;7.10;;
22024;SDS011;11176;51.448;6.650;2023-06-26T02:23:26;10.23;;;6.68;;
22024;SDS011;11176;51.448;6.650;2023-06-26T02:25:52;9.57;;;6.57;;
22024;SDS011;11176;51.448;6.650;2023-06-26T02:28:19;12.25;;;7.05;;
22024;SDS011;11176;51.448;6.650;2023-06-26T02:30:45;8.48;;;6.35;;
22024;SDS011;11176;51.448;6.650;2023-06-26T02:33:12;7.70;;;6.40;;
22024;SDS011;11176;51.448;6.650;2023-06-26T02:35:38;9.63;;;6.65;;
22024;SDS011;11176;51.448;6.650;2023-06-26T02:38:06;8.68;;;6.50;;
22024;SDS011;11176;51.448;6.650;2023-06-26T02:40:32;10.05;;;6.15;;
22024;SDS011;11176;51.448;6.650;2023-06-26T02:43:00;8.32;;;6.25;;
22024;SDS011;11176;51.448;6.650;2023-06-26T02:45:27;9.40;;;5.90;;
22024;SDS011;11176;51.448;6.650;2023-06-26T02:47:54;12.57;;;6.53;;
22024;SDS011;11176;51.448;6.650;2023-06-26T02:50:20;8.50;;;5.88;;
22024;SDS011;11176;51.448;6.650;2023-06-26T02:53:07;9.77;;;6.30;;
22024;SDS011;11176;51.448;6.650;2023-06-26T02:55:35;8.27;;;6.60;;
22024;SDS011;11176;51.448;6.650;2023-06-26T02:58:01;10.38;;;6.35;;
22024;SDS011;11176;51.448;6.650;2023-06-26T03:00:28;8.20;;;6.53;;
22024;SDS011;11176;51.448;6.650;2023-06-26T03:02:59;9.77;;;6.43;;
22024;SDS011;11176;51.448;6.650;2023-06-26T03:05:26;9.40;;;5.93;;
22024;SDS011;11176;51.448;6.650;2023-06-26T03:07:52;8.77;;;6.10;;
22024;SDS011;11176;51.448;6.650;2023-06-26T03:10:19;7.47;;;5.78;;
22024;SDS011;11176;51.448;6.650;2023-06-26T03:12:47;7.97;;;5.82;;
22024;SDS011;11176;51.448;6.650;2023-06-26T03:15:16;6.25;;;5.50;;
22024;SDS011;11176;51.448;6.650;2023-06-26T03:17:42;7.50;;;5.47;;
22024;SDS011;11176;51.448;6.650;2023-06-26T03:20:13;8.60;;;5.55;;
22024;SDS011;11176;51.448;6.650;2023-06-26T03:22:47;7.60;;;5.28;;
22024;SDS011;11176;51.448;6.650;2023-06-26T03:25:15;8.38;;;5.40;;
22024;SDS011;11176;51.448;6.650;2023-06-26T03:27:42;8.25;;;5.90;;
22024;SDS011;11176;51.448;6.650;2023-06-26T03:30:09;7.35;;;5.28;;
22024;SDS011;11176;51.448;6.650;2023-06-26T03:32:38;8.38;;;5.68;;
22024;SDS011;11176;51.448;6.650;2023-06-26T03:35:05;6.85;;;5.80;;
22024;SDS011;11176;51.448;6.650;2023-06-26T03:37:32;7.53;;;6.07;;
22024;SDS011;11176;51.448;6.650;2023-06-26T03:39:59;10.05;;;6.13;;
22024;SDS011;11176;51.448;6.650;2023-06-26T03:42:26;8.15;;;5.90;;
22024;SDS011;11176;51.448;6.650;2023-06-26T03:44:53;7.50;;;6.05;;
22024;SDS011;11176;51.448;6.650;2023-06-26T03:47:20;6.45;;;5.55;;
22024;SDS011;11176;51.448;6.650;2023-06-26T03:49:46;7.70;;;5.57;;
22024;SDS011;11176;51.448;6.650;2023-06-26T03:52:13;8.15;;;5.60;;
22024;SDS011;11176;51.448;6.650;2023-06-26T03:54:39;7.57;;;5.22;;
22024;SDS011;11176;51.448;6.650;2023-06-26T03:57:08;7.60;;;5.35;;
22024;SDS011;11176;51.448;6.650;2023-06-26T03:59:35;8.82;;;5.68;;
22024;SDS011;11176;51.448;6.650;2023-06-26T04:02:02;8.48;;;5.07;;
22024;SDS011;11176;51.448;6.650;2023-06-26T04:04:29;6.50;;;4.90;;
22024;SDS011;11176;51.448;6.650;2023-06-26T04:06:58;6.28;;;4.55;;
22024;SDS011;11176;51.448;6.650;2023-06-26T04:09:25;7.70;;;4.82;;
22024;SDS011;11176;51.448;6.650;2023-06-26T04:11:52;5.93;;;4.43;;
22024;SDS011;11176;51.448;6.650;2023-06-26T04:14:19;6.07;;;4.50;;
22024;SDS011;11176;51.448;6.650;2023-06-26T04:16:45;7.20;;;4.38;;
22024;SDS011;11176;51.448;6.650;2023-06-26T04:19:12;7.07;;;3.97;;
22024;SDS011;11176;51.448;6.650;2023-06-26T04:21:40;7.10;;;4.30;;
22024;SDS011;11176;51.448;6.650;2023-06-26T04:24:06;6.10;;;4.55;;
22024;SDS011;11176;51.448;6.650;2023-06-26T04:26:33;6.82;;;4.45;;
22024;SDS011;11176;51.448;6.650;2023-06-26T04:29:00;6.55;;;4.57;;
22024;SDS011;11176;51.448;6.650;2023-06-26T04:31:26;6.22;;;3.78;;
22024;SDS011;11176;51.448;6.650;2023-06-26T04:33:53;6.75;;;4.18;;
22024;SDS011;11176;51.448;6.650;2023-06-26T04:36:21;5.90;;;3.92;;
22024;SDS011;11176;51.448;6.650;2023-06-26T04:38:48;7.72;;;3.78;;
22024;SDS011;11176;51.448;6.650;2023-06-26T04:41:15;7.75;;;4.25;;
22024;SDS011;11176;51.448;6.650;2023-06-26T04:43:42;6.53;;;4.65;;
22024;SDS011;11176;51.448;6.650;2023-06-26T04:46:08;6.85;;;4.15;;
22024;SDS011;11176;51.448;6.650;2023-06-26T04:48:35;6.63;;;4.15;;
22024;SDS011;11176;51.448;6.650;2023-06-26T04:51:01;6.32;;;4.45;;
22024;SDS011;11176;51.448;6.650;2023-06-26T04:53:28;7.28;;;4.63;;
22024;SDS011;11176;51.448;6.650;2023-06-26T04:55:54;7.53;;;4.88;;
22024;SDS011;11176;51.448;6.650;2023-06-26T04:58:21;6.78;;;5.00;;
22024;SDS011;11176;51.448;6.650;2023-06-26T05:00:47;7.28;;;4.65;;
22024;SDS011;11176;51.448;6.650;2023-06-26T05:03:15;9.88;;;5.30;;
22024;SDS011;11176;51.448;6.650;2023-06-26T05:05:44;7.88;;;4.55;;
22024;SDS011;11176;51.448;6.650;2023-06-26T05:08:21;12.77;;;6.57;;
22024;SDS011;11176;51.448;6.650;2023-06-26T05:10:49;9.57;;;5.65;;
22024;SDS011;11176;51.448;6.650;2023-06-26T05:13:16;10.05;;;5.18;;
22024;SDS011;11176;51.448;6.650;2023-06-26T05:15:45;7.72;;;5.07;;
22024;SDS011;11176;51.448;6.650;2023-06-26T05:18:12;7.35;;;5.00;;
22024;SDS011;11176;51.448;6.650;2023-06-26T05:20:39;7.38;;;4.70;;
22024;SDS011;11176;51.448;6.650;2023-06-26T05:23:06;6.55;;;4.55;;
22024;SDS011;11176;51.448;6.650;2023-06-26T05:25:33;7.40;;;4.60;;
22024;SDS011;11176;51.448;6.650;2023-06-26T05:28:00;12.98;;;4.45;;
22024;SDS011;11176;51.448;6.650;2023-06-26T05:30:27;10.00;;;4.22;;
22024;SDS011;11176;51.448;6.650;2023-06-26T05:32:54;7.90;;;4.15;;
22024;SDS011;11176;51.448;6.650;2023-06-26T05:35:21;7.72;;;3.90;;
22024;SDS011;11176;51.448;6.650;2023-06-26T05:37:49;7.05;;;4.38;;
22024;SDS011;11176;51.448;6.650;2023-06-26T05:40:16;8.30;;;4.32;;
22024;SDS011;11176;51.448;6.650;2023-06-26T05:42:46;9.57;;;4.45;;
22024;SDS011;11176;51.448;6.650;2023-06-26T05:45:13;7.68;;;4.28;;
22024;SDS011;11176;51.448;6.650;2023-06-26T05:47:40;8.88;;;4.38;;
22024;SDS011;11176;51.448;6.650;2023-06-26T05:50:07;9.70;;;4.25;;
22024;SDS011;11176;51.448;6.650;2023-06-26T05:52:35;9.82;;;4.40;;
22024;SDS011;11176;51.448;6.650;2023-06-26T05:55:03;9.13;;;4.35;;
22024;SDS011;11176;51.448;6.650;2023-06-26T05:57:30;6.13;;;3.95;;
22024;SDS011;11176;51.448;6.650;2023-06-26T05:59:57;9.38;;;4.03;;
22024;SDS011;11176;51.448;6.650;2023-06-26T06:02:24;9.60;;;4.20;;
22024;SDS011;11176;51.448;6.650;2023-06-26T06:04:50;7.75;;;4.20;;
22024;SDS011;11176;51.448;6.650;2023-06-26T06:07:17;9.38;;;4.22;;
22024;SDS011;11176;51.448;6.650;2023-06-26T06:09:43;9.75;;;4.38;;
22024;SDS011;11176;51.448;6.650;2023-06-26T06:12:10;7.53;;;4.05;;
22024;SDS011;11176;51.448;6.650;2023-06-26T06:14:36;8.80;;;4.30;;
22024;SDS011;11176;51.448;6.650;2023-06-26T06:17:03;9.35;;;3.80;;
22024;SDS011;11176;51.448;6.650;2023-06-26T06:19:29;8.15;;;4.53;;
22024;SDS011;11176;51.448;6.650;2023-06-26T06:21:56;8.02;;;3.95;;
22024;SDS011;11176;51.448;6.650;2023-06-26T06:24:23;8.20;;;4.45;;
22024;SDS011;11176;51.448;6.650;2023-06-26T06:26:49;10.32;;;4.72;;
22024;SDS011;11176;51.448;6.650;2023-06-26T06:29:16;10.90;;;4.78;;
22024;SDS011;11176;51.448;6.650;2023-06-26T06:31:45;13.32;;;4.93;;
22024;SDS011;11176;51.448;6.650;2023-06-26T06:34:12;8.95;;;4.00;;
22024;SDS011;11176;51.448;6.650;2023-06-26T06:36:39;13.40;;;5.18;;
22024;SDS011;11176;51.448;6.650;2023-06-26T06:39:05;14.30;;;4.57;;
22024;SDS011;11176;51.448;6.650;2023-06-26T06:41:32;10.50;;;4.22;;
22024;SDS011;11176;51.448;6.650;2023-06-26T06:44:04;6.95;;;3.90;;
22024;SDS011;11176;51.448;6.650;2023-06-26T06:46:31;8.38;;;4.25;;
22024;SDS011;11176;51.448;6.650;2023-06-26T06:48:57;7.85;;;4.00;;
22024;SDS011;11176;51.448;6.650;2023-06-26T06:51:24;9.18;;;4.32;;
22024;SDS011;11176;51.448;6.650;2023-06-26T06:53:50;9.80;;;4.20;;
22024;SDS011;11176;51.448;6.650;2023-06-26T06:56:17;9.98;;;4.70;;
22024;SDS011;11176;51.448;6.650;2023-06-26T06:58:43;9.68;;;4.40;;
22024;SDS011;11176;51.448;6.650;2023-06-26T07:01:13;10.15;;;4.90;;
22024;SDS011;11176;51.448;6.650;2023-06-26T07:03:39;10.68;;;4.63;;
22024;SDS011;11176;51.448;6.650;2023-06-26T07:06:07;11.88;;;4.60;;
22024;SDS011;11176;51.448;6.650;2023-06-26T07:08:33;11.18;;;5.10;;
22024;SDS011;11176;51.448;6.650;2023-06-26T07:11:00;13.82;;;5.60;;
22024;SDS011;11176;51.448;6.650;2023-06-26T07:13:26;14.27;;;5.82;;
22024;SDS011;11176;51.448;6.650;2023-06-26T07:15:53;8.95;;;4.57;;
22024;SDS011;11176;51.448;6.650;2023-06-26T07:18:19;10.48;;;4.93;;
22024;SDS011;11176;51.448;6.650;2023-06-26T07:20:46;11.65;;;4.43;;
22024;SDS011;11176;51.448;6.650;2023-06-26T07:23:13;13.63;;;4.95;;
22024;SDS011;11176;51.448;6.650;2023-06-26T07:25:39;10.15;;;5.18;;
22024;SDS011;11176;51.448;6.650;2023-06-26T07:28:10;12.73;;;4.60;;
22024;SDS011;11176;51.448;6.650;2023-06-26T07:30:37;11.65;;;5.20;;
22024;SDS011;11176;51.448;6.650;2023-06-26T07:33:04;12.57;;;4.93;;
22024;SDS011;11176;51.448;6.650;2023-06-26T07:35:33;9.65;;;4.82;;
22024;SDS011;11176;51.448;6.650;2023-06-26T07:37:59;8.27;;;4.85;;
22024;SDS011;11176;51.448;6.650;2023-06-26T07:40:26;9.60;;;4.35;;
22024;SDS011;11176;51.448;6.650;2023-06-26T07:42:53;12.98;;;5.03;;
22024;SDS011;11176;51.448;6.650;2023-06-26T07:45:20;17.63;;;4.70;;
22024;SDS011;11176;51.448;6.650;2023-06-26T07:47:48;11.52;;;4.85;;
22024;SDS011;11176;51.448;6.650;2023-06-26T07:50:15;12.80;;;4.32;;
22024;SDS011;11176;51.448;6.650;2023-06-26T07:52:47;10.93;;;3.70;;
22024;SDS011;11176;51.448;6.650;2023-06-26T07:55:13;10.77;;;4.97;;
22024;SDS011;11176;51.448;6.650;2023-06-26T07:57:40;12.07;;;4.25;;
22024;SDS011;11176;51.448;6.650;2023-06-26T08:00:07;14.98;;;4.25;;
22024;SDS011;11176;51.448;6.650;2023-06-26T08:02:39;13.05;;;4.65;;
22024;SDS011;11176;51.448;6.650;2023-06-26T08:05:06;8.60;;;3.67;;
22024;SDS011;11176;51.448;6.650;2023-06-26T08:07:33;10.85;;;3.70;;
22024;SDS011;11176;51.448;6.650;2023-06-26T08:10:00;13.30;;;4.30;;
22024;SDS011;11176;51.448;6.650;2023-06-26T08:12:26;7.40;;;3.25;;
22024;SDS011;11176;51.448;6.650;2023-06-26T08:14:53;9.82;;;3.65;;
22024;SDS011;11176;51.448;6.650;2023-06-26T08:17:19;13.77;;;3.92;;
22024;SDS011;11176;51.448;6.650;2023-06-26T08:19:46;7.35;;;3.67;;
22024;SDS011;11176;51.448;6.650;2023-06-26T08:22:12;11.73;;;3.90;;
22024;SDS011;11176;51.448;6.650;2023-06-26T08:24:39;8.00;;;3.30;;
22024;SDS011;11176;51.448;6.650;2023-06-26T08:27:05;13.95;;;4.25;;
22024;SDS011;11176;51.448;6.650;2023-06-26T08:29:33;12.20;;;3.97;;
22024;SDS011;11176;51.448;6.650;2023-06-26T08:32:00;11.27;;;3.70;;
22024;SDS011;11176;51.448;6.650;2023-06-26T08:34:28;12.90;;;4.78;;
22024;SDS011;11176;51.448;6.650;2023-06-26T08:36:54;12.13;;;3.63;;
22024;SDS011;11176;51.448;6.650;2023-06-26T08:39:21;9.95;;;3.80;;
22024;SDS011;11176;51.448;6.650;2023-06-26T08:41:47;13.23;;;4.22;;
22024;SDS011;11176;51.448;6.650;2023-06-26T08:44:14;13.68;;;4.30;;
22024;SDS011;11176;51.448;6.650;2023-06-26T08:46:40;10.32;;;3.78;;
22024;SDS011;11176;51.448;6.650;2023-06-26T08:49:14;9.98;;;4.18;;
22024;SDS011;11176;51.448;6.650;2023-06-26T08:51:50;13.63;;;3.90;;
22024;SDS011;11176;51.448;6.650;2023-06-26T08:54:24;9.27;;;4.25;;
22024;SDS011;11176;51.448;6.650;2023-06-26T08:56:57;10.88;;;4.07;;
22024;SDS011;11176;51.448;6.650;2023-06-26T08:59:25;8.70;;;3.65;;
22024;SDS011;11176;51.448;6.650;2023-06-26T09:01:51;10.43;;;4.28;;
22024;SDS011;11176;51.448;6.650;2023-06-26T09:04:18;9.93;;;3.90;;
22024;SDS011;11176;51.448;6.650;2023-06-26T09:06:45;9.60;;;3.85;;
22024;SDS011;11176;51.448;6.650;2023-06-26T09:09:12;10.80;;;4.10;;
22024;SDS011;11176;51.448;6.650;2023-06-26T09:11:38;9.00;;;3.40;;
22024;SDS011;11176;51.448;6.650;2023-06-26T09:14:05;7.22;;;3.10;;
22024;SDS011;11176;51.448;6.650;2023-06-26T09:16:41;12.50;;;3.92;;
22024;SDS011;11176;51.448;6.650;2023-06-26T09:19:11;11.60;;;3.38;;
22024;SDS011;11176;51.448;6.650;2023-06-26T09:21:39;8.82;;;3.45;;
22024;SDS011;11176;51.448;6.650;2023-06-26T09:24:10;7.72;;;3.38;;
22024;SDS011;11176;51.448;6.650;2023-06-26T09:26:37;10.18;;;3.60;;
22024;SDS011;11176;51.448;6.650;2023-06-26T09:29:06;10.88;;;3.55;;
22024;SDS011;11176;51.448;6.650;2023-06-26T09:31:33;10.30;;;3.40;;
22024;SDS011;11176;51.448;6.650;2023-06-26T09:34:07;9.13;;;3.13;;
22024;SDS011;11176;51.448;6.650;2023-06-26T09:36:34;9.45;;;2.97;;
22024;SDS011;11176;51.448;6.650;2023-06-26T09:39:06;9.73;;;2.63;;
22024;SDS011;11176;51.448;6.650;2023-06-26T09:41:38;6.05;;;3.00;;
22024;SDS011;11176;51.448;6.650;2023-06-26T09:44:05;5.00;;;3.03;;
22024;SDS011;11176;51.448;6.650;2023-06-26T09:46:32;6.93;;;2.70;;
22024;SDS011;11176;51.448;6.650;2023-06-26T09:49:03;6.13;;;2.67;;
22024;SDS011;11176;51.448;6.650;2023-06-26T09:51:30;7.85;;;2.85;;
22024;SDS011;11176;51.448;6.650;2023-06-26T09:53:59;7.30;;;3.20;;
22024;SDS011;11176;51.448;6.650;2023-06-26T09:56:27;7.78;;;2.97;;
22024;SDS011;11176;51.448;6.650;2023-06-26T09:58:58;6.50;;;2.45;;
22024;SDS011;11176;51.448;6.650;2023-06-26T10:01:26;7.60;;;2.92;;
22024;SDS011;11176;51.448;6.650;2023-06-26T10:03:54;10.82;;;3.25;;
22024;SDS011;11176;51.448;6.650;2023-06-26T10:06:27;11.30;;;2.88;;
22024;SDS011;11176;51.448;6.650;2023-06-26T10:08:59;7.32;;;2.88;;
22024;SDS011;11176;51.448;6.650;2023-06-26T10:11:29;4.82;;;2.30;;
22024;SDS011;11176;51.448;6.650;2023-06-26T10:14:03;6.05;;;2.42;;
22024;SDS011;11176;51.448;6.650;2023-06-26T10:16:43;7.50;;;2.30;;
22024;SDS011;11176;51.448;6.650;2023-06-26T10:19:11;6.53;;;2.30;;
22024;SDS011;11176;51.448;6.650;2023-06-26T10:21:40;9.70;;;3.05;;
22024;SDS011;11176;51.448;6.650;2023-06-26T10:24:07;10.30;;;2.70;;
22024;SDS011;11176;51.448;6.650;2023-06-26T10:26:39;3.88;;;2.15;;
22024;SDS011;11176;51.448;6.650;2023-06-26T10:29:10;6.43;;;2.70;;
22024;SDS011;11176;51.448;6.650;2023-06-26T10:31:41;5.80;;;3.00;;
22024;SDS011;11176;51.448;6.650;2023-06-26T10:34:12;7.18;;;2.85;;
22024;SDS011;11176;51.448;6.650;2023-06-26T10:36:39;8.25;;;3.00;;
22024;SDS011;11176;51.448;6.650;2023-06-26T10:39:07;7.32;;;2.42;;
22024;SDS011;11176;51.448;6.650;2023-06-26T10:41:37;5.82;;;2.05;;
22024;SDS011;11176;51.448;6.650;2023-06-26T10:44:18;3.85;;;1.48;;
22024;SDS011;11176;51.448;6.650;2023-06-26T10:49:24;4.68;;;1.90;;
22024;SDS011;11176;51.448;6.650;2023-06-26T10:51:52;3.85;;;1.45;;
22024;SDS011;11176;51.448;6.650;2023-06-26T10:54:21;4.35;;;1.70;;
22024;SDS011;11176;51.448;6.650;2023-06-26T10:56:48;5.07;;;1.40;;
22024;SDS011;11176;51.448;6.650;2023-06-26T10:59:20;3.92;;;1.40;;
22024;SDS011;11176;51.448;6.650;2023-06-26T11:02:01;2.67;;;1.20;;
22024;SDS011;11176;51.448;6.650;2023-06-26T11:04:37;4.10;;;1.42;;
22024;SDS011;11176;51.448;6.650;2023-06-26T11:07:22;6.97;;;1.52;;
22024;SDS011;11176;51.448;6.650;2023-06-26T11:09:53;3.47;;;1.13;;
22024;SDS011;11176;51.448;6.650;2023-06-26T11:15:11;8.45;;;1.40;;
22024;SDS011;11176;51.448;6.650;2023-06-26T11:17:40;7.13;;;1.38;;
22024;SDS011;11176;51.448;6.650;2023-06-26T11:20:08;4.82;;;1.40;;
22024;SDS011;11176;51.448;6.650;2023-06-26T11:22:39;5.10;;;1.40;;
22024;SDS011;11176;51.448;6.650;2023-06-26T11:25:07;5.80;;;1.30;;
22024;SDS011;11176;51.448;6.650;2023-06-26T11:30:05;3.60;;;1.20;;
22024;SDS011;11176;51.448;6.650;2023-06-26T11:32:33;4.85;;;1.20;;
22024;SDS011;11176;51.448;6.650;2023-06-26T11:35:01;3.83;;;1.42;;
22024;SDS011;11176;51.448;6.650;2023-06-26T11:37:27;2.47;;;0.70;;
22024;SDS011;11176;51.448;6.650;2023-06-26T11:39:54;4.97;;;0.90;;
22024;SDS011;11176;51.448;6.650;2023-06-26T11:42:20;4.03;;;0.93;;
22024;SDS011;11176;51.448;6.650;2023-06-26T11:44:47;5.03;;;1.10;;
22024;SDS011;11176;51.448;6.650;2023-06-26T11:47:14;3.72;;;1.10;;
22024;SDS011;11176;51.448;6.650;2023-06-26T11:49:46;2.72;;;0.73;;
22024;SDS011;11176;51.448;6.650;2023-06-26T11:52:14;3.28;;;1.00;;
22024;SDS011;11176;51.448;6.650;2023-06-26T11:54:42;3.35;;;1.10;;
22024;SDS011;11176;51.448;6.650;2023-06-26T11:57:13;2.95;;;0.75;;
22024;SDS011;11176;51.448;6.650;2023-06-26T11:59:41;4.80;;;0.80;;
22024;SDS011;11176;51.448;6.650;2023-06-26T12:02:11;3.33;;;0.90;;
22024;SDS011;11176;51.448;6.650;2023-06-26T12:07:08;3.85;;;0.85;;
22024;SDS011;11176;51.448;6.650;2023-06-26T12:09:43;3.53;;;0.95;;
22024;SDS011;11176;51.448;6.650;2023-06-26T12:12:12;2.90;;;0.93;;
22024;SDS011;11176;51.448;6.650;2023-06-26T12:14:41;3.60;;;0.60;;
22024;SDS011;11176;51.448;6.650;2023-06-26T12:17:09;2.63;;;0.77;;
22024;SDS011;11176;51.448;6.650;2023-06-26T12:19:38;3.28;;;1.10;;
22024;SDS011;11176;51.448;6.650;2023-06-26T12:22:06;3.90;;;1.08;;
22024;SDS011;11176;51.448;6.650;2023-06-26T12:24:33;2.40;;;0.73;;
22024;SDS011;11176;51.448;6.650;2023-06-26T12:27:07;2.42;;;0.85;;
22024;SDS011;11176;51.448;6.650;2023-06-26T12:29:34;2.83;;;0.85;;
22024;SDS011;11176;51.448;6.650;2023-06-26T12:32:02;2.00;;;0.75;;
22024;SDS011;11176;51.448;6.650;2023-06-26T12:34:33;2.55;;;0.90;;
22024;SDS011;11176;51.448;6.650;2023-06-26T12:37:01;2.72;;;0.73;;
22024;SDS011;11176;51.448;6.650;2023-06-26T12:39:29;1.80;;;0.70;;
22024;SDS011;11176;51.448;6.650;2023-06-26T12:42:13;1.75;;;0.70;;
22024;SDS011;11176;51.448;6.650;2023-06-26T12:44:41;3.67;;;0.88;;
22024;SDS011;11176;51.448;6.650;2023-06-26T12:47:07;3.80;;;0.90;;
22024;SDS011;11176;51.448;6.650;2023-06-26T12:49:35;6.78;;;1.17;;
22024;SDS011;11176;51.448;6.650;2023-06-26T12:52:02;4.35;;;1.00;;
22024;SDS011;11176;51.448;6.650;2023-06-26T12:54:30;2.30;;;1.00;;
22024;SDS011;11176;51.448;6.650;2023-06-26T12:56:58;2.75;;;0.70;;
22024;SDS011;11176;51.448;6.650;2023-06-26T12:59:24;2.83;;;0.73;;
22024;SDS011;11176;51.448;6.650;2023-06-26T13:01:51;5.55;;;0.88;;
22024;SDS011;11176;51.448;6.650;2023-06-26T13:04:18;1.30;;;0.50;;
22024;SDS011;11176;51.448;6.650;2023-06-26T13:06:44;3.53;;;1.20;;
22024;SDS011;11176;51.448;6.650;2023-06-26T13:09:11;6.85;;;1.00;;
22024;SDS011;11176;51.448;6.650;2023-06-26T13:11:38;4.85;;;1.08;;
22024;SDS011;11176;51.448;6.650;2023-06-26T13:14:04;2.67;;;0.88;;
22024;SDS011;11176;51.448;6.650;2023-06-26T13:16:37;2.03;;;0.77;;
22024;SDS011;11176;51.448;6.650;2023-06-26T13:19:04;5.45;;;0.90;;
22024;SDS011;11176;51.448;6.650;2023-06-26T13:21:30;3.88;;;1.20;;
22024;SDS011;11176;51.448;6.650;2023-06-26T13:23:57;6.15;;;1.00;;
22024;SDS011;11176;51.448;6.650;2023-06-26T13:26:25;4.80;;;0.90;;
22024;SDS011;11176;51.448;6.650;2023-06-26T13:29:03;7.00;;;1.08;;
22024;SDS011;11176;51.448;6.650;2023-06-26T13:31:30;3.45;;;0.70;;
22024;SDS011;11176;51.448;6.650;2023-06-26T13:33:57;2.70;;;0.90;;
22024;SDS011;11176;51.448;6.650;2023-06-26T13:36:25;3.55;;;1.10;;
22024;SDS011;11176;51.448;6.650;2023-06-26T13:38:52;7.75;;;1.25;;
22024;SDS011;11176;51.448;6.650;2023-06-26T13:41:22;3.80;;;0.80;;
22024;SDS011;11176;51.448;6.650;2023-06-26T13:43:49;3.47;;;0.90;;
22024;SDS011;11176;51.448;6.650;2023-06-26T13:46:17;3.50;;;0.80;;
22024;SDS011;11176;51.448;6.650;2023-06-26T13:48:44;4.18;;;0.90;;
22024;SDS011;11176;51.448;6.650;2023-06-26T13:51:11;6.90;;;1.17;;
22024;SDS011;11176;51.448;6.650;2023-06-26T13:53:38;3.92;;;0.65;;
22024;SDS011;11176;51.448;6.650;2023-06-26T13:56:05;2.90;;;0.80;;
22024;SDS011;11176;51.448;6.650;2023-06-26T13:58:31;1.88;;;0.82;;
22024;SDS011;11176;51.448;6.650;2023-06-26T14:00:59;2.70;;;0.80;;
22024;SDS011;11176;51.448;6.650;2023-06-26T14:03:26;5.63;;;0.93;;
22024;SDS011;11176;51.448;6.650;2023-06-26T14:05:54;3.17;;;0.90;;
22024;SDS011;11176;51.448;6.650;2023-06-26T14:08:21;5.47;;;0.95;;
22024;SDS011;11176;51.448;6.650;2023-06-26T14:10:48;3.40;;;0.75;;
22024;SDS011;11176;51.448;6.650;2023-06-26T14:13:14;1.35;;;0.60;;
22024;SDS011;11176;51.448;6.650;2023-06-26T14:15:42;2.22;;;0.75;;
22024;SDS011;11176;51.448;6.650;2023-06-26T14:18:08;1.95;;;0.73;;
22024;SDS011;11176;51.448;6.650;2023-06-26T14:20:35;2.10;;;0.88;;
22024;SDS011;11176;51.448;6.650;2023-06-26T14:23:03;1.38;;;0.60;;
22024;SDS011;11176;51.448;6.650;2023-06-26T14:25:30;2.85;;;1.08;;
22024;SDS011;11176;51.448;6.650;2023-06-26T14:27:56;2.33;;;0.80;;
22024;SDS011;11176;51.448;6.650;2023-06-26T14:30:24;1.92;;;0.75;;
22024;SDS011;11176;51.448;6.650;2023-06-26T14:32:50;1.63;;;0.70;;
22024;SDS011;11176;51.448;6.650;2023-06-26T14:35:17;2.25;;;0.80;;
22024;SDS011;11176;51.448;6.650;2023-06-26T14:37:44;3.28;;;0.80;;
22024;SDS011;11176;51.448;6.650;2023-06-26T14:40:10;3.25;;;0.68;;
22024;SDS011;11176;51.448;6.650;2023-06-26T14:42:38;1.75;;;0.50;;
22024;SDS011;11176;51.448;6.650;2023-06-26T14:45:05;1.83;;;0.65;;
22024;SDS011;11176;51.448;6.650;2023-06-26T14:47:33;4.45;;;0.70;;
22024;SDS011;11176;51.448;6.650;2023-06-26T14:49:59;2.67;;;0.60;;
22024;SDS011;11176;51.448;6.650;2023-06-26T14:52:26;1.83;;;0.60;;
22024;SDS011;11176;51.448;6.650;2023-06-26T14:54:53;3.28;;;0.90;;
22024;SDS011;11176;51.448;6.650;2023-06-26T14:57:19;3.55;;;0.77;;
22024;SDS011;11176;51.448;6.650;2023-06-26T14:59:46;2.78;;;0.68;;
22024;SDS011;11176;51.448;6.650;2023-06-26T15:02:12;4.35;;;0.70;;
22024;SDS011;11176;51.448;6.650;2023-06-26T15:04:39;2.67;;;0.85;;
22024;SDS011;11176;51.448;6.650;2023-06-26T15:07:06;2.33;;;1.00;;
22024;SDS011;11176;51.448;6.650;2023-06-26T15:09:33;2.90;;;0.98;;
22024;SDS011;11176;51.448;6.650;2023-06-26T15:12:00;3.40;;;0.98;;